This is the latest recevied weather packets stored in our database for station/object F5IOR-13. If no packets are shown the sender has not sent any weather packets the latest 10 day(s).
| Time | Temp. | Humidity | Pressure | Rain* | Wind** | Luminosity | Snow |
|---|---|---|---|---|---|---|---|
| 1777966828 | 12.22° C | 93% | 980.7 hPa | 3.3 mm | - | - | - |
| 1777966708 | 12.22° C | 93% | 980.7 hPa | 3.3 mm | - | - | - |
| 1777966649 | 12.22° C | 93% | 980.7 hPa | 3.3 mm | - | - | - |
| 1777966588 | 12.22° C | 93% | 980.7 hPa | 3.3 mm | - | - | - |
| 1777966528 | 12.22° C | 93% | 980.7 hPa | 3.3 mm | - | - | - |
| 1777921823 | 15° C | 73% | 982.8 hPa | 5.33 mm | - | - | - |
| 1777920023 | 15.56° C | 70% | 982.7 hPa | 5.33 mm | - | - | - |
| 1777918223 | 16.11° C | 69% | 982.5 hPa | 5.33 mm | - | - | - |
| 1777916423 | 16.67° C | 68% | 982.3 hPa | 5.33 mm | - | - | - |
| 1777914623 | 16.67° C | 70% | 982.3 hPa | 5.33 mm | - | - | - |
| 1777912823 | 16.67° C | 70% | 982.6 hPa | 6.1 mm | - | - | - |
| 1777911023 | 16.67° C | 69% | 982.7 hPa | 6.1 mm | - | - | - |
| 1777909223 | 17.22° C | 67% | 982.8 hPa | 6.1 mm | - | - | - |
| 1777907423 | 17.22° C | 67% | 983 hPa | 6.1 mm | - | - | - |
| 1777905623 | 17.22° C | 68% | 983.2 hPa | 6.1 mm | - | - | - |
| 1777903823 | 16.67° C | 73% | 983.4 hPa | 9.14 mm | - | - | - |
| 1777902023 | 16.67° C | 72% | 983.4 hPa | 9.14 mm | - | - | - |
| 1777900223 | 16.67° C | 71% | 983.8 hPa | 9.14 mm | - | - | - |
| 1777898423 | 16.67° C | 71% | 984 hPa | 9.14 mm | - | - | - |
| 1777896623 | 16.67° C | 71% | 984.6 hPa | 9.14 mm | - | - | - |
| 1777894823 | 16.67° C | 70% | 984.6 hPa | 9.14 mm | - | - | - |
| 1777893023 | 15.56° C | 70% | 984.9 hPa | 9.65 mm | - | - | - |
| 1777891223 | 15.56° C | 74% | 985.1 hPa | 9.65 mm | - | - | - |
| 1777889423 | 14.44° C | 76% | 985.3 hPa | 9.65 mm | - | - | - |
| 1777887623 | 14.44° C | 75% | 985.4 hPa | 9.65 mm | - | - | - |
* Rain latest hour (hover to see other rain measurements)
** Current wind speed in m/s (hover to see current wind gust speed)